Time;durP1;ratioP1;P1;durP2;ratioP2;P2;SDS_P1;SDS_P2;PMS_P1;PMS_P2;Temp;Humidity;BMP_temperature;BMP_pressure;BME280_temperature;BME280_humidity;BME280_pressure;Samples;Min_cycle;Max_cycle;Signal;HPM_P1;HPM_P2
2023/05/15 00:00:29;;;;;;;;;;;;;;;12.15;86.19;101474.88;5033750;28;19920;-83
2023/05/15 00:02:55;;;;;;;;;;;;;;;12.15;84.94;101469.56;5050491;28;20332;-82
2023/05/15 00:05:21;;;;;;;;;;;;;;;12.15;85.48;101474.00;5051316;28;19924;-82
2023/05/15 00:07:46;;;;;;;;;;;;;;;12.14;83.79;101473.13;5055363;28;20425;-83
2023/05/15 00:10:12;;;;;;;;;;;;;;;12.11;82.96;101465.19;5053964;28;19917;-83
2023/05/15 00:12:37;;;;;;;;;;;;;;;12.06;83.65;101456.44;5037263;28;19925;-82
2023/05/15 00:15:03;;;;;;;;;;;;;;;12.05;83.04;101463.53;5054188;28;19925;-82
2023/05/15 00:17:28;;;;;;;;;;;;;;;12.05;83.46;101462.66;5054067;28;19924;-82
2023/05/15 00:19:56;;;;;;;;;;;;;;;12.05;83.20;101460.88;5054933;28;19931;-82
2023/05/15 00:22:22;;;;;;;;;;;;;;;12.05;84.57;101462.66;5054013;28;19917;-82
2023/05/15 00:24:47;;;;;;;;;;;;;;;12.01;86.67;101464.47;5053662;28;19931;-83
2023/05/15 00:27:13;;;;;;;;;;;;;;;11.93;86.13;101468.19;5054731;28;19991;-82
2023/05/15 00:29:38;;;;;;;;;;;;;;;11.88;87.18;101459.44;5043036;28;20287;-81
2023/05/15 00:32:05;;;;;;;;;;;;;;;11.84;86.03;101455.91;5037008;28;19986;-82
2023/05/15 00:34:30;;;;;;;;;;;;;;;11.77;84.93;101451.59;5053597;28;19924;-81
2023/05/15 00:36:56;;;;;;;;;;;;;;;11.71;88.20;101454.38;5053437;28;19929;-82
2023/05/15 00:39:21;;;;;;;;;;;;;;;11.68;87.90;101449.13;5036951;28;20035;-82
2023/05/15 00:41:47;;;;;;;;;;;;;;;11.64;88.94;101450.94;5037130;28;19916;-80
2023/05/15 00:44:14;;;;;;;;;;;;;;;11.62;88.37;101447.44;5036859;28;19917;-81
2023/05/15 00:46:39;;;;;;;;;;;;;;;11.63;86.32;101451.84;5054681;28;19924;-81
2023/05/15 00:49:05;;;;;;;;;;;;;;;11.57;85.46;101447.53;5036777;28;19928;-80
2023/05/15 00:51:31;;;;;;;;;;;;;;;11.47;85.97;101445.03;5052752;28;20271;-80
2023/05/15 00:53:57;;;;;;;;;;;;;;;11.40;85.15;101445.16;5036703;28;20095;-80
2023/05/15 00:56:23;;;;;;;;;;;;;;;11.36;87.31;101448.72;5036699;28;20256;-81
2023/05/15 00:58:51;;;;;;;;;;;;;;;11.33;87.60;101437.31;5053568;28;19966;-81
2023/05/15 01:01:17;;;;;;;;;;;;;;;11.29;87.11;101441.78;5033449;28;20422;-81
2023/05/15 01:03:43;;;;;;;;;;;;;;;11.27;87.25;101432.97;5053738;28;19920;-81
2023/05/15 01:06:08;;;;;;;;;;;;;;;11.28;88.19;101439.16;5054676;28;19987;-81
2023/05/15 01:08:42;;;;;;;;;;;;;;;11.24;88.34;101427.72;5050077;28;20364;-81
2023/05/15 01:11:08;;;;;;;;;;;;;;;11.18;88.32;101439.28;5039498;28;20342;-81
2023/05/15 01:13:33;;;;;;;;;;;;;;;11.13;87.21;101438.47;5054444;28;19952;-81
2023/05/15 01:15:59;;;;;;;;;;;;;;;11.11;86.28;101434.97;5052694;28;19927;-81
2023/05/15 01:18:31;;;;;;;;;;;;;;;11.06;86.46;101434.16;5052119;28;19986;-81
2023/05/15 01:20:59;;;;;;;;;;;;;;;11.07;86.54;101432.38;5053208;28;20291;-81
2023/05/15 01:23:43;;;;;;;;;;;;;;;11.08;87.00;101428.84;5035945;28;19943;-81
2023/05/15 01:26:18;;;;;;;;;;;;;;;11.09;87.13;101428.81;5052631;28;20015;-81
2023/05/15 01:28:47;;;;;;;;;;;;;;;11.05;84.85;101423.56;5051964;28;19994;-80
2023/05/15 01:31:15;;;;;;;;;;;;;;;10.97;88.18;101434.28;5022103;28;20004;-80
2023/05/15 01:33:44;;;;;;;;;;;;;;;10.95;88.95;101433.44;5036072;28;19924;-80
2023/05/15 01:36:16;;;;;;;;;;;;;;;10.89;88.73;101423.81;5053764;28;20420;-80
2023/05/15 01:38:43;;;;;;;;;;;;;;;10.86;87.71;101426.50;5036097;28;20327;-81
2023/05/15 01:41:08;;;;;;;;;;;;;;;10.89;87.74;101425.59;5052407;28;19913;-80
2023/05/15 01:43:37;;;;;;;;;;;;;;;10.89;88.39;101425.59;5036029;28;19962;-80
2023/05/15 01:46:04;;;;;;;;;;;;;;;10.87;88.81;101420.28;5052236;28;19913;-80
2023/05/15 01:48:32;;;;;;;;;;;;;;;10.82;89.30;101416.81;5052562;28;20003;-80
2023/05/15 01:51:00;;;;;;;;;;;;;;;10.79;87.79;101414.22;5053587;28;19920;-80
2023/05/15 01:53:26;;;;;;;;;;;;;;;10.73;87.92;101411.66;5050617;28;19917;-80
2023/05/15 01:55:52;;;;;;;;;;;;;;;10.68;89.90;101411.75;5035615;28;19920;-80
2023/05/15 01:58:17;;;;;;;;;;;;;;;10.63;89.07;101410.91;5052602;28;19917;-80
2023/05/15 02:00:44;;;;;;;;;;;;;;;10.60;87.24;101408.28;5044799;28;19917;-82
2023/05/15 02:03:09;;;;;;;;;;;;;;;10.57;87.22;101410.13;5058290;28;19917;-80
2023/05/15 02:05:35;;;;;;;;;;;;;;;10.58;86.07;101409.19;5052493;28;19917;-80
2023/05/15 02:08:04;;;;;;;;;;;;;;;10.53;87.03;101399.56;5053412;28;19928;-80
2023/05/15 02:10:30;;;;;;;;;;;;;;;10.49;87.28;101402.28;5031850;28;19917;-80
2023/05/15 02:12:56;;;;;;;;;;;;;;;10.52;88.29;101405.75;5044316;28;19917;-80
2023/05/15 02:15:22;;;;;;;;;;;;;;;10.57;87.87;101399.53;5053222;28;20321;-80
2023/05/15 02:17:47;;;;;;;;;;;;;;;10.54;88.99;101400.44;5051996;28;19921;-80
2023/05/15 02:20:13;;;;;;;;;;;;;;;10.56;90.24;101406.59;5032327;28;19913;-80
2023/05/15 02:22:38;;;;;;;;;;;;;;;10.57;89.71;101405.69;5051835;28;20514;-80
2023/05/15 02:25:04;;;;;;;;;;;;;;;10.55;90.25;101403.03;5035206;28;20026;-81
2023/05/15 02:27:37;;;;;;;;;;;;;;;10.52;90.50;101397.78;5049115;28;20265;-81
2023/05/15 02:30:09;;;;;;;;;;;;;;;10.52;91.37;101413.69;5047938;28;19917;-81
2023/05/15 02:32:41;;;;;;;;;;;;;;;10.52;89.73;101405.75;5051954;28;19928;-80
2023/05/15 02:35:45;;;;;;;;;;;;;;;10.48;89.71;101416.38;5052259;28;20302;-80
2023/05/15 02:38:14;;;;;;;;;;;;;;;10.44;91.29;101420.00;5050399;28;20468;-80
2023/05/15 02:40:40;;;;;;;;;;;;;;;10.43;89.26;101418.22;5048420;28;19912;-80
2023/05/15 02:43:07;;;;;;;;;;;;;;;10.40;89.11;101418.25;5067456;28;19921;-80
2023/05/15 02:45:33;;;;;;;;;;;;;;;10.33;89.54;101420.97;5051338;28;19912;-80
2023/05/15 02:47:59;;;;;;;;;;;;;;;10.29;89.79;101427.22;5020809;28;20344;-80
2023/05/15 02:50:25;;;;;;;;;;;;;;;10.25;90.77;101427.22;5051335;28;19955;-80
2023/05/15 02:52:50;;;;;;;;;;;;;;;10.24;89.66;101428.13;5048218;28;19924;-80
2023/05/15 02:55:16;;;;;;;;;;;;;;;10.23;91.11;101432.53;5051147;28;20023;-80
2023/05/15 02:57:41;;;;;;;;;;;;;;;10.22;91.39;101420.19;5034509;28;20004;-80
2023/05/15 03:00:10;;;;;;;;;;;;;;;10.21;90.88;101418.44;5051043;28;19928;-80
2023/05/15 03:02:36;;;;;;;;;;;;;;;10.21;90.06;101422.84;5051087;28;20018;-80
2023/05/15 03:05:02;;;;;;;;;;;;;;;10.18;89.46;101423.75;5050835;28;20348;-80
2023/05/15 03:07:27;;;;;;;;;;;;;;;10.15;91.20;101415.84;5034549;28;19943;-80
2023/05/15 03:09:53;;;;;;;;;;;;;;;10.10;90.62;101415.91;5050689;28;19986;-80
2023/05/15 03:12:18;;;;;;;;;;;;;;;10.04;94.22;101415.97;5034215;28;19921;-80
2023/05/15 03:14:43;;;;;;;;;;;;;;;10.02;94.84;101414.25;5050830;28;20255;-80
2023/05/15 03:17:09;;;;;;;;;;;;;;;10.01;94.11;101417.75;5050923;28;19920;-80
2023/05/15 03:19:34;;;;;;;;;;;;;;;9.95;95.04;101405.47;5044870;28;20011;-80
2023/05/15 03:22:00;;;;;;;;;;;;;;;9.97;92.71;101410.78;5048001;28;19947;-80
2023/05/15 03:24:25;;;;;;;;;;;;;;;9.95;92.14;101412.56;5034114;28;19959;-80
2023/05/15 03:26:50;;;;;;;;;;;;;;;9.93;93.32;101416.97;5033942;28;19917;-80
2023/05/15 03:29:16;;;;;;;;;;;;;;;9.88;92.91;101411.72;5049717;28;19917;-79
2023/05/15 03:31:41;;;;;;;;;;;;;;;9.84;92.56;101410.91;5051992;28;19929;-80
2023/05/15 03:34:07;;;;;;;;;;;;;;;9.79;92.10;101406.50;5030670;28;19924;-79
2023/05/15 03:36:32;;;;;;;;;;;;;;;9.79;92.74;101404.78;5042470;28;19988;-80
2023/05/15 03:38:57;;;;;;;;;;;;;;;9.79;92.87;101406.50;5030860;28;20252;-80
2023/05/15 03:41:24;;;;;;;;;;;;;;;9.77;93.76;101403.03;5052169;28;20007;-80
2023/05/15 03:43:50;;;;;;;;;;;;;;;9.77;93.30;101400.38;5054691;28;19917;-80
2023/05/15 03:46:17;;;;;;;;;;;;;;;9.76;92.59;101393.31;5038544;28;19987;-80
2023/05/15 03:48:42;;;;;;;;;;;;;;;9.72;91.03;101391.59;5038039;28;19916;-80
2023/05/15 03:51:07;;;;;;;;;;;;;;;9.69;90.54;101396.03;5054519;28;19925;-80
2023/05/15 03:53:33;;;;;;;;;;;;;;;9.69;91.34;101393.41;5054687;28;19912;-79
2023/05/15 03:55:58;;;;;;;;;;;;;;;9.69;90.35;101388.13;5050614;28;19947;-80
2023/05/15 03:58:24;;;;;;;;;;;;;;;9.73;90.77;101393.38;5044387;28;19935;-80
2023/05/15 04:00:50;;;;;;;;;;;;;;;9.72;90.10;101391.59;5054215;28;19956;-80
2023/05/15 04:03:15;;;;;;;;;;;;;;;9.72;89.10;101387.22;5037963;28;19920;-80
2023/05/15 04:05:41;;;;;;;;;;;;;;;9.71;90.25;101389.84;5055678;28;20309;-79
2023/05/15 04:08:08;;;;;;;;;;;;;;;9.68;89.52;101390.75;5040182;28;19917;-80
2023/05/15 04:10:33;;;;;;;;;;;;;;;9.66;92.32;101395.19;5055516;28;19966;-80
2023/05/15 04:12:59;;;;;;;;;;;;;;;9.69;91.88;101390.75;5054272;28;19924;-80
2023/05/15 04:15:26;;;;;;;;;;;;;;;9.74;93.40;101393.34;5055383;28;19913;-80
2023/05/15 04:17:52;;;;;;;;;;;;;;;9.75;94.54;101395.09;5054154;28;19921;-79
2023/05/15 04:20:18;;;;;;;;;;;;;;;9.72;93.26;101395.13;5055132;28;19919;-79
2023/05/15 04:22:44;;;;;;;;;;;;;;;9.69;96.91;101390.75;5043934;28;20392;-79
2023/05/15 04:25:10;;;;;;;;;;;;;;;9.68;95.79;101388.13;5050048;28;19932;-79
2023/05/15 04:27:36;;;;;;;;;;;;;;;9.67;97.02;101392.53;5049566;28;20349;-80
2023/05/15 04:30:02;;;;;;;;;;;;;;;9.68;98.46;101390.75;5041915;28;19967;-80
2023/05/15 04:32:29;;;;;;;;;;;;;;;9.67;97.17;101396.94;5054092;28;20135;-79
2023/05/15 04:34:54;;;;;;;;;;;;;;;9.67;96.90;101399.59;5053884;28;19916;-79
2023/05/15 04:37:20;;;;;;;;;;;;;;;9.67;95.32;101408.41;5036924;28;19970;-79
2023/05/15 04:39:45;;;;;;;;;;;;;;;9.70;94.38;101404.84;5036966;28;20352;-79
2023/05/15 04:42:11;;;;;;;;;;;;;;;9.70;93.53;101410.13;5039508;28;20020;-79
2023/05/15 04:44:36;;;;;;;;;;;;;;;9.67;95.37;101418.97;5053650;28;19960;-80
2023/05/15 04:47:02;;;;;;;;;;;;;;;9.64;97.66;101426.94;5054515;28;19924;-79
2023/05/15 04:49:27;;;;;;;;;;;;;;;9.64;97.29;101426.94;5020422;28;20375;-79
2023/05/15 04:51:52;;;;;;;;;;;;;;;9.62;97.56;101425.22;5053393;28;20325;-79
2023/05/15 04:54:18;;;;;;;;;;;;;;;9.66;97.88;101421.63;5018392;28;19920;-80
2023/05/15 04:56:44;;;;;;;;;;;;;;;9.67;97.01;101426.03;5017586;28;20529;-80
2023/05/15 04:59:09;;;;;;;;;;;;;;;9.69;98.52;101427.78;5048730;28;20378;-80
2023/05/15 05:01:36;;;;;;;;;;;;;;;9.73;98.57;101423.31;5053368;28;19930;-81
2023/05/15 05:04:01;;;;;;;;;;;;;;;9.77;97.13;101422.41;5046721;28;19920;-80
2023/05/15 05:06:27;;;;;;;;;;;;;;;9.86;96.34;101426.72;5022518;28;19922;-80
2023/05/15 05:08:52;;;;;;;;;;;;;;;9.92;96.47;101423.19;5054569;28;20356;-80
2023/05/15 05:11:17;;;;;;;;;;;;;;;9.92;97.43;101431.13;5054562;28;20268;-81
2023/05/15 05:13:43;;;;;;;;;;;;;;;9.94;97.12;101424.00;5030901;28;19913;-80
2023/05/15 05:16:08;;;;;;;;;;;;;;;9.96;99.34;101417.81;5048333;28;19916;-80
2023/05/15 05:18:34;;;;;;;;;;;;;;;9.97;98.56;101432.81;5045980;28;19917;-80
2023/05/15 05:21:00;;;;;;;;;;;;;;;9.96;97.06;101430.16;5043058;28;19921;-79
2023/05/15 05:23:25;;;;;;;;;;;;;;;9.98;94.79;101421.31;5041068;28;20464;-79
2023/05/15 05:25:51;;;;;;;;;;;;;;;9.97;95.49;101432.81;5059167;28;20007;-80
2023/05/15 05:28:16;;;;;;;;;;;;;;;9.97;97.54;101439.88;5037580;28;19924;-81
2023/05/15 05:30:45;;;;;;;;;;;;;;;9.99;97.92;101446.91;5040334;28;19917;-80
2023/05/15 05:33:11;;;;;;;;;;;;;;;10.04;98.31;101453.03;5044757;28;19920;-80
2023/05/15 05:35:36;;;;;;;;;;;;;;;10.09;98.47;101447.69;5052368;28;19917;-80
2023/05/15 05:38:02;;;;;;;;;;;;;;;10.14;97.18;101451.16;5052576;28;19939;-79
2023/05/15 05:40:27;;;;;;;;;;;;;;;10.15;95.96;101444.09;5032641;28;19921;-80
2023/05/15 05:42:53;;;;;;;;;;;;;;;10.21;94.67;101459.91;5007451;28;19917;-80
2023/05/15 05:45:18;;;;;;;;;;;;;;;10.17;94.89;101459.06;5050598;28;19917;-81
2023/05/15 05:47:44;;;;;;;;;;;;;;;10.18;94.47;101455.50;5030203;28;19936;-80
2023/05/15 05:50:09;;;;;;;;;;;;;;;10.16;94.69;101461.72;5048609;28;19923;-80
2023/05/15 05:52:35;;;;;;;;;;;;;;;10.13;95.06;101457.34;5052642;28;19926;-80
2023/05/15 05:55:00;;;;;;;;;;;;;;;10.17;92.79;101461.72;5040148;28;19988;-80
2023/05/15 05:57:25;;;;;;;;;;;;;;;10.23;93.83;101460.78;5041490;28;19921;-80
2023/05/15 05:59:51;;;;;;;;;;;;;;;10.36;93.49;101462.44;5037047;28;19997;-80
2023/05/15 06:02:16;;;;;;;;;;;;;;;10.49;94.23;101447.28;5035912;28;20350;-79
2023/05/15 06:04:42;;;;;;;;;;;;;;;10.59;93.90;101445.41;5051774;28;19917;-79
2023/05/15 06:07:07;;;;;;;;;;;;;;;10.69;92.59;101455.00;5051992;28;20087;-79
2023/05/15 06:09:33;;;;;;;;;;;;;;;10.76;93.11;101444.28;5032310;28;20008;-80
2023/05/15 06:11:59;;;;;;;;;;;;;;;10.80;92.34;101455.72;5051904;28;20040;-76
2023/05/15 06:14:25;;;;;;;;;;;;;;;10.75;92.55;101463.72;5052085;28;19923;-85
2023/05/15 06:16:50;;;;;;;;;;;;;;;10.78;92.51;101446.94;5052231;28;19913;-78
2023/05/15 06:19:16;;;;;;;;;;;;;;;10.80;92.03;101458.34;5052951;28;19950;-78
2023/05/15 06:21:41;;;;;;;;;;;;;;;10.82;91.42;101461.00;5035124;28;19917;-78
2023/05/15 06:24:06;;;;;;;;;;;;;;;10.83;90.79;101457.44;5051636;28;19971;-78
2023/05/15 06:26:32;;;;;;;;;;;;;;;10.87;91.21;101452.09;5051574;28;19924;-78
2023/05/15 06:28:57;;;;;;;;;;;;;;;10.95;91.25;101446.69;5044699;28;19920;-79
2023/05/15 06:31:23;;;;;;;;;;;;;;;11.06;90.77;101446.56;5053588;28;19917;-79
2023/05/15 06:33:48;;;;;;;;;;;;;;;11.14;90.21;101445.53;5040637;28;19920;-80
2023/05/15 06:36:13;;;;;;;;;;;;;;;11.25;89.77;101455.09;5051670;28;20040;-75
2023/05/15 06:38:39;;;;;;;;;;;;;;;11.37;89.36;101455.81;5051458;28;20101;-79
2023/05/15 06:41:04;;;;;;;;;;;;;;;11.51;89.61;101446.75;5052741;28;19913;-78
2023/05/15 06:43:30;;;;;;;;;;;;;;;11.61;89.05;101457.19;5051458;28;19923;-78
2023/05/15 06:45:55;;;;;;;;;;;;;;;11.71;87.48;101452.59;5045553;28;20430;-79
2023/05/15 06:48:21;;;;;;;;;;;;;;;11.77;86.64;101449.84;5025268;28;19921;-78
2023/05/15 06:50:46;;;;;;;;;;;;;;;11.73;86.38;101449.94;5052099;28;19952;-79
2023/05/15 06:53:11;;;;;;;;;;;;;;;11.69;86.39;101456.19;5034884;28;20371;-79
2023/05/15 06:55:37;;;;;;;;;;;;;;;11.74;86.00;101444.56;5051160;28;19913;-79
2023/05/15 06:58:03;;;;;;;;;;;;;;;11.84;85.75;101442.63;5051327;28;20387;-79
2023/05/15 07:00:28;;;;;;;;;;;;;;;11.97;84.97;101446.88;5047996;28;19917;-79
2023/05/15 07:02:54;;;;;;;;;;;;;;;12.08;83.61;101437.84;5034619;28;20280;-79
2023/05/15 07:05:20;;;;;;;;;;;;;;;12.18;84.56;101445.59;5050945;28;19920;-78
2023/05/15 07:07:46;;;;;;;;;;;;;;;12.33;83.44;101444.44;5051230;28;20280;-79
2023/05/15 07:10:11;;;;;;;;;;;;;;;12.49;82.68;101447.66;5051092;28;19924;-79
2023/05/15 07:12:36;;;;;;;;;;;;;;;12.57;81.51;101447.50;5052598;28;20062;-80
2023/05/15 07:15:02;;;;;;;;;;;;;;;12.62;81.81;101443.84;5031012;28;19917;-78
2023/05/15 07:17:28;;;;;;;;;;;;;;;12.73;82.44;101446.28;5051241;28;20017;-79
2023/05/15 07:19:53;;;;;;;;;;;;;;;12.90;83.33;101452.09;5034266;28;20011;-77
2023/05/15 07:22:19;;;;;;;;;;;;;;;13.03;80.12;101452.72;5050946;28;20338;-76
2023/05/15 07:24:44;;;;;;;;;;;;;;;13.10;81.30;101442.81;5041717;28;19936;-77
2023/05/15 07:27:10;;;;;;;;;;;;;;;13.20;79.96;101446.13;5045289;28;20313;-79
2023/05/15 07:29:35;;;;;;;;;;;;;;;13.21;78.69;101446.13;5020009;28;19972;-79
2023/05/15 07:32:00;;;;;;;;;;;;;;;13.15;79.55;101442.72;5027549;28;19947;-79
2023/05/15 07:34:26;;;;;;;;;;;;;;;13.10;79.85;101437.50;5043458;28;19971;-79
2023/05/15 07:36:51;;;;;;;;;;;;;;;13.11;79.15;101432.16;5052508;28;19921;-81
2023/05/15 07:39:17;;;;;;;;;;;;;;;13.01;79.18;101425.28;5050556;28;20016;-78
2023/05/15 07:41:42;;;;;;;;;;;;;;;13.04;79.10;101438.50;5051005;28;19921;-81
2023/05/15 07:44:07;;;;;;;;;;;;;;;13.08;79.83;101440.19;5033884;28;20275;-79
2023/05/15 07:46:33;;;;;;;;;;;;;;;13.21;79.74;101427.50;5047747;28;19917;-79
2023/05/15 07:48:58;;;;;;;;;;;;;;;13.25;78.38;101429.19;5050914;28;20317;-79
2023/05/15 07:51:24;;;;;;;;;;;;;;;13.36;78.49;101428.09;5030890;28;19926;-79
2023/05/15 07:53:49;;;;;;;;;;;;;;;13.37;76.51;101428.03;5025046;28;20011;-80
2023/05/15 07:56:15;;;;;;;;;;;;;;;13.42;76.73;101422.59;5033519;28;20265;-79
2023/05/15 07:58:40;;;;;;;;;;;;;;;13.50;77.66;101423.28;5030849;28;19921;-80
2023/05/15 08:01:06;;;;;;;;;;;;;;;13.59;76.58;101423.06;5031550;28;19917;-80
2023/05/15 08:03:32;;;;;;;;;;;;;;;13.71;77.84;101416.56;5045182;28;20256;-76
2023/05/15 08:05:58;;;;;;;;;;;;;;;13.87;75.24;101415.25;5060553;28;19923;-79
2023/05/15 08:08:23;;;;;;;;;;;;;;;13.96;76.33;101416.78;5051486;28;19921;-79
2023/05/15 08:10:49;;;;;;;;;;;;;;;14.07;73.12;101421.81;5043966;28;19972;-80
2023/05/15 08:13:14;;;;;;;;;;;;;;;14.10;73.75;101416.41;5053629;28;19917;-85
2023/05/15 08:15:39;;;;;;;;;;;;;;;14.17;73.36;101418.88;5031854;28;19917;-80
2023/05/15 08:18:11;;;;;;;;;;;;;;;14.38;74.12;101413.84;5045802;28;19925;-79
2023/05/15 08:20:40;;;;;;;;;;;;;;;14.60;73.54;101415.00;5046600;28;19917;-80
2023/05/15 08:23:05;;;;;;;;;;;;;;;14.81;72.71;101415.28;5050983;28;20350;-79
2023/05/15 08:25:30;;;;;;;;;;;;;;;14.97;73.11;101421.91;5051931;28;20012;-79
2023/05/15 08:27:56;;;;;;;;;;;;;;;15.02;71.21;101414.63;5051062;28;20268;-80
2023/05/15 08:30:21;;;;;;;;;;;;;;;15.00;72.62;101418.25;5054313;28;19920;-79
2023/05/15 08:32:47;;;;;;;;;;;;;;;15.09;72.70;101411.78;5055602;28;19956;-80
2023/05/15 08:35:13;;;;;;;;;;;;;;;15.29;72.20;101421.81;5055555;28;20373;-80
2023/05/15 08:37:39;;;;;;;;;;;;;;;15.37;70.69;101425.09;5041471;28;20008;-80
2023/05/15 08:40:06;;;;;;;;;;;;;;;15.36;70.58;101426.91;5055565;28;19956;-79
2023/05/15 08:42:41;;;;;;;;;;;;;;;15.37;71.93;101423.28;5055476;28;19928;-79
2023/05/15 08:45:07;;;;;;;;;;;;;;;15.49;71.30;101430.03;5054459;28;19917;-77
2023/05/15 08:47:34;;;;;;;;;;;;;;;15.57;70.33;101433.31;5055332;28;19920;-77
2023/05/15 08:50:06;;;;;;;;;;;;;;;15.62;71.31;101423.34;5040971;28;20494;-76
2023/05/15 08:52:32;;;;;;;;;;;;;;;15.58;69.32;101428.84;5054821;28;19955;-79
2023/05/15 08:54:58;;;;;;;;;;;;;;;15.61;70.59;101423.44;5050451;28;19961;-80
2023/05/15 08:57:24;;;;;;;;;;;;;;;15.63;70.53;101416.25;5049135;28;19921;-79
2023/05/15 08:59:50;;;;;;;;;;;;;;;15.70;71.52;101415.13;5053725;28;19913;-79
2023/05/15 09:02:16;;;;;;;;;;;;;;;15.87;71.99;101411.88;5054984;28;20077;-79
2023/05/15 09:04:41;;;;;;;;;;;;;;;16.08;71.89;101412.94;5054951;28;19917;-79
2023/05/15 09:07:06;;;;;;;;;;;;;;;16.27;69.37;101415.78;5055308;28;19942;-79
2023/05/15 09:09:35;;;;;;;;;;;;;;;16.53;71.37;101414.84;5054773;28;19917;-79
2023/05/15 09:12:01;;;;;;;;;;;;;;;16.72;69.63;101410.53;5054596;28;19940;-79
2023/05/15 09:14:26;;;;;;;;;;;;;;;16.97;70.06;101407.81;5053571;28;19923;-79
2023/05/15 09:16:52;;;;;;;;;;;;;;;17.10;62.57;101415.34;5049667;28;19917;-80
2023/05/15 09:19:21;;;;;;;;;;;;;;;17.02;65.46;101407.63;5044439;28;19924;-79
2023/05/15 09:21:47;;;;;;;;;;;;;;;16.95;64.15;101412.34;5054703;28;20043;-80
2023/05/15 09:24:16;;;;;;;;;;;;;;;16.99;64.14;101410.44;5054338;28;20363;-79
2023/05/15 09:26:43;;;;;;;;;;;;;;;16.95;61.12;101411.47;5054413;28;19975;-79
2023/05/15 09:29:08;;;;;;;;;;;;;;;16.87;61.88;101414.47;5046949;28;20338;-80
2023/05/15 09:31:34;;;;;;;;;;;;;;;16.71;62.08;101418.59;5047377;28;19925;-80
2023/05/15 09:34:04;;;;;;;;;;;;;;;16.67;64.87;101417.88;5050223;28;19920;-79
2023/05/15 09:36:31;;;;;;;;;;;;;;;16.69;64.63;101413.34;5055274;28;20137;-80
2023/05/15 09:38:57;;;;;;;;;;;;;;;16.69;64.68;101423.13;5053975;28;19951;-80
2023/05/15 09:41:23;;;;;;;;;;;;;;;16.61;64.56;101422.56;5054374;28;19917;-80
2023/05/15 09:43:49;;;;;;;;;;;;;;;16.36;64.93;101426.16;5052980;28;19958;-80
2023/05/15 09:46:16;;;;;;;;;;;;;;;16.24;65.28;101413.25;5051264;28;19928;-80
2023/05/15 09:48:41;;;;;;;;;;;;;;;16.14;66.20;101428.72;5057307;28;20339;-80
2023/05/15 09:51:17;;;;;;;;;;;;;;;16.11;66.67;101429.72;5062111;28;19925;-80
2023/05/15 09:53:50;;;;;;;;;;;;;;;16.04;67.18;101425.50;5060531;28;19917;-79
2023/05/15 09:56:16;;;;;;;;;;;;;;;16.09;67.58;101431.56;5043302;28;19921;-80
2023/05/15 09:58:51;;;;;;;;;;;;;;;16.17;68.28;101435.75;5042139;28;19920;-80
2023/05/15 10:01:18;;;;;;;;;;;;;;;16.32;68.62;101424.53;5051951;28;19924;-79
2023/05/15 10:03:43;;;;;;;;;;;;;;;16.43;67.67;101427.66;5052607;28;19920;-80
2023/05/15 10:06:16;;;;;;;;;;;;;;;16.47;67.21;101432.00;5052439;28;19921;-80
2023/05/15 10:08:49;;;;;;;;;;;;;;;16.48;67.70;101435.53;5040142;28;20398;-80
2023/05/15 10:11:14;;;;;;;;;;;;;;;16.52;67.54;101434.50;5053758;28;19927;-80
2023/05/15 10:13:40;;;;;;;;;;;;;;;16.43;67.48;101440.19;5035454;28;19917;-80
2023/05/15 10:16:06;;;;;;;;;;;;;;;16.21;67.70;101440.94;5053626;28;20007;-80
2023/05/15 10:18:32;;;;;;;;;;;;;;;16.05;68.14;101437.94;5053520;28;19913;-80
2023/05/15 10:21:02;;;;;;;;;;;;;;;16.02;68.62;101435.41;5051947;28;19928;-80
2023/05/15 10:23:29;;;;;;;;;;;;;;;15.95;69.33;101439.22;5053448;28;20298;-80
2023/05/15 10:26:02;;;;;;;;;;;;;;;15.93;69.85;101443.72;5051729;28;19921;-80
2023/05/15 10:28:27;;;;;;;;;;;;;;;15.86;69.83;101445.72;5039664;28;19916;-81
2023/05/15 10:30:54;;;;;;;;;;;;;;;15.85;69.66;101449.34;5051772;28;19936;-80
2023/05/15 10:33:19;;;;;;;;;;;;;;;15.83;69.96;101453.84;5048706;28;19928;-80
2023/05/15 10:35:45;;;;;;;;;;;;;;;15.68;70.40;101443.66;5052508;28;19942;-78
2023/05/15 10:38:11;;;;;;;;;;;;;;;15.63;71.32;101448.28;5051720;28;19920;-80
2023/05/15 10:40:38;;;;;;;;;;;;;;;15.67;71.14;101447.22;5052714;28;19912;-79
2023/05/15 10:43:04;;;;;;;;;;;;;;;15.64;71.22;101448.22;5043243;28;20256;-80
2023/05/15 10:45:30;;;;;;;;;;;;;;;15.53;72.02;101444.13;5048391;28;20019;-80
2023/05/15 10:47:56;;;;;;;;;;;;;;;15.41;72.27;101442.75;5052146;28;19960;-81
2023/05/15 10:50:22;;;;;;;;;;;;;;;15.47;71.86;101445.22;5052382;28;19913;-80
2023/05/15 10:52:49;;;;;;;;;;;;;;;15.49;71.92;101438.03;5052197;28;19943;-80
2023/05/15 10:55:15;;;;;;;;;;;;;;;15.47;72.67;101438.09;5040180;28;19924;-80
2023/05/15 10:57:41;;;;;;;;;;;;;;;15.48;72.57;101438.97;5036776;28;19956;-81
2023/05/15 11:00:22;;;;;;;;;;;;;;;15.38;72.74;101435.72;5051952;28;19963;-81
2023/05/15 11:02:47;;;;;;;;;;;;;;;15.26;73.14;101437.00;5039892;28;19924;-80
2023/05/15 11:05:13;;;;;;;;;;;;;;;15.18;73.69;101443.47;5040374;28;20279;-81
2023/05/15 11:07:38;;;;;;;;;;;;;;;15.07;73.53;101434.97;5046835;28;19950;-81
2023/05/15 11:10:24;;;;;;;;;;;;;;;14.95;74.87;101438.88;5038418;28;20043;-80
2023/05/15 11:12:57;;;;;;;;;;;;;;;14.85;75.05;101443.59;5042775;28;19951;-80
2023/05/15 11:15:22;;;;;;;;;;;;;;;14.88;75.08;101443.50;5050129;28;20387;-80
2023/05/15 11:18:01;;;;;;;;;;;;;;;14.91;75.32;101439.88;5034380;28;19920;-80
2023/05/15 11:20:33;;;;;;;;;;;;;;;14.89;75.83;101431.94;5049045;28;20455;-81
2023/05/15 11:22:58;;;;;;;;;;;;;;;14.85;75.66;101438.28;5042733;28;20387;-80
2023/05/15 11:25:28;;;;;;;;;;;;;;;14.83;75.91;101437.44;5034046;28;19925;-80
2023/05/15 11:27:54;;;;;;;;;;;;;;;14.79;76.09;101438.47;5029855;28;19967;-81
2023/05/15 11:30:21;;;;;;;;;;;;;;;14.74;76.55;101433.28;5043892;28;19916;-80
2023/05/15 11:32:46;;;;;;;;;;;;;;;14.75;76.88;101437.66;5034005;28;20330;-81
2023/05/15 11:35:13;;;;;;;;;;;;;;;14.72;76.94;101436.91;5019730;28;19913;-80
2023/05/15 11:37:46;;;;;;;;;;;;;;;14.69;76.12;101434.31;5043386;28;19921;-80
2023/05/15 11:40:17;;;;;;;;;;;;;;;14.69;77.17;101439.63;5041896;28;20009;-80
2023/05/15 11:42:57;;;;;;;;;;;;;;;14.71;76.01;101437.81;5052331;28;19936;-80
2023/05/15 11:45:22;;;;;;;;;;;;;;;14.71;77.07;101436.03;5047993;28;19917;-79
2023/05/15 11:47:48;;;;;;;;;;;;;;;14.72;76.53;101436.91;5049989;28;19917;-81
2023/05/15 11:50:15;;;;;;;;;;;;;;;14.69;77.48;101443.19;5034146;28;20002;-80
2023/05/15 11:52:41;;;;;;;;;;;;;;;14.61;77.72;101431.88;5045587;28;19920;-81
2023/05/15 11:55:07;;;;;;;;;;;;;;;14.51;78.47;101438.34;5045665;28;20402;-85
2023/05/15 11:57:32;;;;;;;;;;;;;;;14.49;78.67;101441.06;5020871;28;20021;-81
2023/05/15 11:59:57;;;;;;;;;;;;;;;14.53;77.88;101437.41;5038866;28;19928;-81
2023/05/15 12:02:23;;;;;;;;;;;;;;;14.53;77.37;101440.09;5038230;28;19921;-81
2023/05/15 12:04:50;;;;;;;;;;;;;;;14.50;79.19;101437.47;5052355;28;19944;-81
2023/05/15 12:07:16;;;;;;;;;;;;;;;14.52;78.65;101440.13;5052323;28;19960;-81
2023/05/15 12:09:41;;;;;;;;;;;;;;;14.49;78.91;101437.50;5051321;28;19967;-81
2023/05/15 12:12:11;;;;;;;;;;;;;;;14.53;78.94;101437.41;5047214;28;19933;-81
2023/05/15 12:14:38;;;;;;;;;;;;;;;14.58;79.01;101421.31;5042201;28;19952;-81
2023/05/15 12:17:03;;;;;;;;;;;;;;;14.59;78.56;101431.94;5047222;28;19917;-81
2023/05/15 12:19:29;;;;;;;;;;;;;;;14.57;78.63;101432.88;5048191;28;19971;-82
2023/05/15 12:21:55;;;;;;;;;;;;;;;14.49;79.26;101434.84;5051893;28;19962;-81
2023/05/15 12:24:20;;;;;;;;;;;;;;;14.49;79.37;101429.53;5044205;28;19935;-81
2023/05/15 12:26:46;;;;;;;;;;;;;;;14.54;79.82;101427.63;5046218;28;20299;-81
2023/05/15 12:29:12;;;;;;;;;;;;;;;14.51;80.08;101433.03;5042767;28;19939;-81
2023/05/15 12:31:38;;;;;;;;;;;;;;;14.56;79.68;101428.47;5053749;28;19967;-81
2023/05/15 12:34:03;;;;;;;;;;;;;;;14.64;78.39;101429.13;5033559;28;19921;-81